CST,Max TemperatureF,Mean TemperatureF,Min TemperatureF,Max Dew PointF,MeanDew PointF,Min DewpointF,Max Humidity, Mean Humidity, Min Humidity, Max Sea Level PressureIn, Mean Sea Level PressureIn, Min Sea Level PressureIn, Max VisibilityMiles, Mean VisibilityMiles, Min VisibilityMiles, Max Wind SpeedMPH, Mean Wind SpeedMPH, Max Gust SpeedMPH,PrecipitationIn, CloudCover, Events, WindDirDegrees
2012-12-1,67,58,49,58,54,48,100,86,69,30.08,30.00,29.91,10,10,10,17,9,25,0.00,5,,164
2012-12-2,72,64,57,61,59,56,100,86,56,30.04,29.98,29.93,10,10,10,10,7,18,0.00,3,,189
2012-12-3,73,66,59,61,59,54,100,80,50,29.96,29.91,29.83,10,10,10,17,11,31,0.00,3,,177
2012-12-4,64,51,38,61,51,32,100,91,42,30.33,30.06,29.93,10,8,2,15,7,22,0.78,6,Rain,334
2012-12-5,59,46,33,37,33,30,98,67,34,30.36,30.26,30.11,10,10,10,8,3,,0.00,0,,152
2012-12-6,59,48,37,46,42,32,100,78,54,30.08,29.95,29.88,10,9,0,9,7,,0.00,3,,140
2012-12-7,58,52,45,50,49,46,100,88,73,29.88,29.85,29.81,10,10,5,8,4,,0.00,8,,291
2012-12-8,48,45,42,48,45,43,100,100,93,29.98,29.91,29.86,10,2,0,10,5,,0.00,8,Fog,26
2012-12-9,48,46,42,48,38,23,100,73,37,29.94,29.83,29.80,10,2,0,14,4,21,0.06,7,Fog-Rain,334
2012-12-10,28,23,18,20,18,14,96,77,68,30.11,29.98,29.91,10,10,10,13,9,22,0.00,5,,295
2012-12-11,45,30,14,20,17,13,96,64,29,30.22,30.14,30.09,10,10,10,8,4,,0.00,0,,202
2012-12-12,50,36,21,22,16,8,83,50,17,30.32,30.26,30.22,10,10,10,14,6,,0.00,0,,170
2012-12-13,56,42,27,23,21,18,75,47,25,30.28,30.23,30.17,10,10,10,14,8,20,0.00,0,,165
2012-12-14,54,42,30,42,30,24,96,58,36,30.21,30.07,29.87,10,10,9,17,10,25,0.06,4,Rain,149
2012-12-15,64,53,42,49,44,38,100,81,44,29.84,29.73,29.62,10,10,6,18,14,32,0.08,5,Rain,187
2012-12-16,59,48,37,43,38,35,100,79,39,29.75,29.71,29.62,10,8,4,10,5,,0.00,2,,315
2012-12-17,41,37,31,40,38,32,100,99,89,29.81,29.72,29.68,10,5,0,12,6,,0.00,8,Fog,325
2012-12-18,60,44,29,35,33,30,99,69,34,29.90,29.79,29.73,10,9,6,12,6,20,0.00,0,,199
2012-12-19,57,46,36,57,48,33,100,93,70,29.91,29.65,29.47,10,8,2,18,9,25,0.25,6,Rain-Thunderstorm,135
2012-12-20,57,41,25,57,33,19,100,88,63,30.16,29.61,29.30,10,7,1,29,16,41,0.44,7,Rain-Snow-Thunderstorm,261
2012-12-21,40,31,22,19,13,7,75,54,25,30.35,30.29,30.17,10,10,10,13,9,22,0.00,0,,288
2012-12-22,58,40,22,23,19,16,79,49,19,30.28,30.12,29.97,10,10,10,14,7,20,0.00,0,,152
2012-12-23,60,48,36,43,33,20,75,57,37,29.95,29.88,29.82,10,10,10,8,5,,0.00,2,,304
2012-12-24,37,30,22,32,24,19,100,87,64,30.11,30.00,29.83,10,9,6,12,8,,0.00,5,,327
2012-12-25,30,24,19,24,20,15,89,81,74,30.20,30.10,30.02,10,10,10,18,10,29,0.00,7,,23
2012-12-26,32,26,20,20,18,16,85,74,60,30.20,30.11,30.00,10,10,10,23,13,26,0.00,6,,333
2012-12-27,35,28,21,25,22,18,93,78,61,30.18,30.10,30.01,10,10,10,14,6,20,0.00,4,,119
2012-12-28,35,32,29,32,29,25,100,88,75,30.02,29.95,29.89,10,8,2,13,6,18,0.00,8,Rain-Snow,278
2012-12-29,31,26,21,25,19,16,86,77,53,30.36,30.14,29.98,10,10,7,17,11,22,0.00,6,Snow,288
2012-12-30,44,32,21,20,18,14,78,57,30,30.44,30.35,30.22,10,10,10,13,7,18,0.00,1,,190
2012-12-31,36,34,31,34,32,20,100,97,51,30.22,30.11,30.04,10,4,1,10,5,,0.16,8,Rain-Snow,107